AirNav   Air Wisconsin Up To $57,000 Bonus
 
 1548 users online  

KPOC Brackett Field Airport
La Verne, California, USA

GOING TO LA VERNE?


FAA INFORMATION EFFECTIVE 03 NOVEMBER 2022

Location

FAA Identifier: POC
Lat/Long: 34-05-30.0000N 117-46-54.4000W
34-05.500000N 117-46.906667W
34.0916667,-117.7817778
(estimated)
Elevation: 1013.9 ft. / 309.0 m (surveyed)
Variation: 14E (1980)
From city: 1 mile SW of LA VERNE, CA
Time zone: UTC -8 (UTC -7 during Daylight Saving Time)
Zip code: 91750

Airport Operations

Airport use: Open to the public
Activation date: 01/1942
Control tower: yes
ARTCC: LOS ANGELES CENTER
FSS: RIVERSIDE FLIGHT SERVICE STATION
NOTAMs facility: POC (NOTAM-D service available)
Attendance: CONTINUOUS
Wind indicator: lighted
Segmented circle: yes
Lights: WHEN ATCT CLSD, ARPT LGT OPRS CONSLY FM 2100-0700 LCL.
Beacon: white-green (lighted land airport)
Operates sunset to sunrise.

Airport Communications

CTAF: 118.2
UNICOM: 122.95
ATIS: 124.4
WX AWOS-3PT: 124.4 (909-596-1523)
BRACKETT GROUND: 125.0 [0700-2100]
BRACKETT TOWER: 118.2 ;RWY 08R/26L 133.3 ;RWY 08L/26R [0700-2100]
SOCAL APPROACH: 125.5 ;SW-NORTH
SOCAL DEPARTURE: 125.5 ;SW-NORTH
CLEARANCE DELIVERY: 121.875
CLASS C: 127.0 ;NORTH-NE
IC: 125.5 ;SW-NORTH
WX AWOS-3P at CCB (5 nm E): 119.525 (909-985-4731)
WX ASOS at ONT (9 nm E): PHONE 909-937-2186
WX ASOS at CNO (10 nm SE): PHONE 909-393-5823
WX AWOS-3PT at EMT (13 nm W): 118.75 ((626) 444-1107)
WX AWOS-3PT at AJO (15 nm SE): 132.175 (951-340-4764)
WX ASOS at FUL (16 nm SW): PHONE 714-870-1372
WX ASOS at RAL (19 nm SE): 128.8 (951-352-4392)

Nearby radio navigation aids

VOR radial/distance  VOR name  Freq  Var
POM at fieldPOMONA VORTAC110.4015E
PDZr295/16.3PARADISE VORTAC112.2015E
RALr282/(18.4)RIVERSIDE VOR108.6014E
SLIr021/23.0SEAL BEACH VORTAC115.7015E
ELBr340/25.1EL TORO VOR/DME117.2014E
LAXr059/33.7LOS ANGELES VORTAC113.6015E
SMOr067/33.9SANTA MONICA VOR/DME110.8015E
HDFr289/(35.2)HOMELAND VOR112.0514E
PMDr142/35.3PALMDALE VORTAC114.5015E
VCVr199/35.9VICTORVILLE VOR/DME109.0514E
VNYr088/36.1VAN NUYS VOR/DME113.1015E

Airport Services

Fuel available: 100LL JET-A
Parking: tiedowns
Airframe service: MAJOR
Powerplant service: MAJOR
Bottled oxygen: LOW

Runway Information

Runway 8R/26L

Dimensions: 4840 x 75 ft. / 1475 x 23 m
Surface: asphalt, in good condition
Weight bearing capacity: 
Single wheel: 26.0
Runway edge lights: medium intensity
RUNWAY 8R  RUNWAY 26L
Latitude: 34-05.502838N34-05.458277N
Longitude: 117-47.430285W117-46.472718W
Elevation: 965.3 ft.1011.1 ft.
Traffic pattern: rightleft
Runway heading: 079 magnetic, 093 true259 magnetic, 273 true
Displaced threshold: no689 ft.
Markings: basic, in good conditionprecision, in good condition
Visual slope indicator: 4-light PAPI on left (3.76 degrees glide path)
UNUSBL BYD 5 DEG L OF CNTRLN.
4-light PAPI on left (3.76 degrees glide path)
Runway end identifier lights: yesyes
Touchdown point: yes, no lightsyes, no lights
Instrument approach: ILS
Obstructions: 254 ft. hill, 3651 ft. from runway, 800 ft. left of centerline, 13:1 slope to clear15 ft. road, 200 ft. from runway, 290 ft. left of centerline
APCH RATIO TO DSPLCD THR 50:1. APCH RATIO TO DSPLCD THR OVER +65 FT POLES 1988 FT FROM DSPLCD THR, 250 FT L, 30:1.

Runway 8L/26R

Dimensions: 3661 x 75 ft. / 1116 x 23 m
Surface: asphalt, in good condition
Weight bearing capacity: 
Single wheel: 12.5
RUNWAY 8L  RUNWAY 26R
Latitude: 34-05.542152N34-05.508445N
Longitude: 117-47.208622W117-46.484380W
Elevation: 979.1 ft.1013.9 ft.
Traffic pattern: leftright
Runway heading: 079 magnetic, 093 true259 magnetic, 273 true
Markings: basic, in good conditionbasic, in good condition
Runway end identifier lights: nono
Touchdown point: yes, no lightsyes, no lights
Obstructions: 240 ft. hill, 4750 ft. from runway, 500 ft. left of centerline, 18:1 slope to clear15 ft. road, 540 ft. from runway, 159 ft. left of centerline, 22:1 slope to clear

Airport Ownership and Management from official FAA records

Ownership: Publicly-owned
Owner: COUNTY OF LOS ANGELES
PO BOX 1460
ALHAMBRA, CA 91803-1331
Phone 626-300-4600
LA COUNTY CTC: PAUL MASELBAS, 626-300-4600 X4615.
Manager: JESSEE MALONEY
1615 MCKINLEY AVENUE
LA VERNE, CA 91750
Phone 909-593-1395

Airport Operational Statistics

Aircraft based on the field: 94
Single engine airplanes: 81
Multi engine airplanes: 6
Jet airplanes: 1
Helicopters: 1
Gliders airplanes: 1
Military aircraft: 4
    
Aircraft operations: avg 291/day *
61% local general aviation
39% transient general aviation
<1% air taxi
<1% military
<1% commercial
* for 12-month period ending 30 September 2021

Additional Remarks

NOISE ABATEMENT PROCEDURES IN EFFECT CTC AMGR (909) 593-1395.
RY 08L/26R UNLGTD.
BIRDS AND WILDLIFE IN VICINITY OF AIRPORT.
RAPIDLY RISING TERRAIN 1 MILE W-NW OF ARPT.
FOR CD WHEN ATCT CLSD CTC SOCAL APCH AT 800-448-3724.

Instrument Procedures

NOTE: All procedures below are presented as PDF files. If you need a reader for these files, you should download the free Adobe Reader.

NOT FOR NAVIGATION. Please procure official charts for flight.
FAA instrument procedures published for use from 03 November 2022 at 0901Z to 01 December 2022 at 0900Z.

 
STARs - Standard Terminal Arrivals
SETER FIVE   download (268KB)
ZIGGY SEVEN   2 pages: [1] [2] (444KB)
 
IAPs - Instrument Approach Procedures
ILS RWY 26L **CHANGED**   download (311KB)
RNAV (GPS) RWY 26L **CHANGED**   download (316KB)
LOC RWY 26L **CHANGED**   download (331KB)
VOR OR GPS-A **CHANGED**   download (263KB)
NOTE: Special Alternate Minimums apply   download (125KB)
NOTE: Special Take-Off Minimums/Departure Procedures apply   download (360KB)

Other nearby airports with instrument procedures:

KCCB - Cable Airport (5 nm E)
KONT - Ontario International Airport (9 nm E)
KCNO - Chino Airport (10 nm SE)
KEMT - San Gabriel Valley Airport (13 nm W)
KAJO - Corona Municipal Airport (15 nm SE)
KFUL - Fullerton Municipal Airport (16 nm SW)
KRAL - Riverside Municipal Airport (19 nm SE)
KRIR - Flabob Airport (19 nm E)
 
Loc | Ops | Rwys | IFR | FBO | Links
Com | Nav | Svcs | Stats | Notes

Luxivair - San Bernardino International Airport
 
Area around KPOC (Brackett Field Airport)
 
Road maps at: MapQuest Bing Google
 
Aerial photo
WARNING: Photo may not be current or correct
Aerial photo of KPOC (Brackett Field Airport)
Photo courtesy of Mark Holtzman - West Coast Aerial Photography, Inc.
Photo taken 11-Feb-2019
looking north.

Do you have a better or more recent aerial photo of Brackett Field Airport that you would like to share? If so, please send us your photo.

 
Sectional chart

 
Airport diagram
Diagram of KPOC (Brackett Field Airport)
Download PDF
of official airport diagram from the FAA

 
Airport distance calculator
Flying to Brackett Field Airport? Find the distance to fly.

From to KPOC

Sunrise and sunset
Times for 29-Nov-2022
 Local
(UTC-8)
 Zulu
(UTC)
Morning civil twilight06:1114:11
Sunrise06:3814:38
Sunset16:4100:41
Evening civil twilight17:0801:08

Current date and time
Zulu (UTC)  29-Nov-2022 16:48:13
Local (UTC-8)  29-Nov-2022 08:48:13
 
METAR
KPOC 282147Z 28005KT 8SM BKN022 A2989
KCCB 
5nm E 
119.525 909-985-4731
291635Z AUTO 09003KT 9SM OVC042 12/09 A2997 RMK AO2
KONT 
10nm E 
291553Z VRB03KT 10SM SCT025 BKN046 12/08 A2996 RMK AO2 SLP145 T01170083
KCNO 
10nm SE 
291553Z 00000KT 10SM BKN050 13/08 A2998 RMK AO2 SLP149 T01280083
KEMT 
12nm W 
291545Z 01004KT 10SM SCT020 BKN025 13/08 A2997
KAJO 
15nm SE 
291556Z AUTO 10003KT 10SM FEW049 11/08 A2998 RMK AO2 SLP148 T01110083
KFUL 
17nm SW 
291553Z 09005KT 10SM SCT047 14/09 A2995 RMK AO2 SLP142 T01390094
KRAL 
19nm SE 
291553Z 00000KT 10SM BKN050 12/08 A2997 RMK AO2 SLP138 T01170083
TAF
KONT 
10nm E 
291259Z 2913/3018 VRB04KT P6SM SCT025 BKN040 TEMPO 2913/2916 BKN018 BKN025 FM291800 VRB05KT P6SM FEW035
NOTAMs
Click for the latest NOTAMs
NOTAMs are issued by the DoD/FAA and will open in a separate window not controlled by AirNav.

 

 
 

FBO, Fuel Providers, and Aircraft Ground Support

  
 Business Name 
 
 Contact 
 
 Services / Description 
 
Fuel Prices
 
Comments
  
 Billion Air Aviation, Inc.
626-703-8613
[web site]
[email]
Aviation fuel, Aircraft ground handling, Aircraft parking (ramp or tiedown), Passenger terminal and lounge, Rental cars delivered, Computerized weather, ...
 
EPIC Card  
 
More info about Billion Air Aviation, Inc.
EPIC
100LL Jet A
FS $6.99 $6.39 
 Updated 17-Nov-2022
 
   1 read write
LA County Aviation 909-844-7805
no information available

If you are affiliated with LA County Aviation and would like to show here your services, contact info, web link, logo, and more, click here
100LL Jet A
FS $6.72 $6.24 
SS $6.42 --- 
 Updated 23-Nov-2022
 
   write
FS=Full service
SS=Self service
Update Fuel Prices
 

Would you like to see your business listed on this page?

 If your business provides an interesting product or service to pilots, flight crews, aircraft, or users of the Brackett Field Airport, you should consider listing it here.  To start the listing process, click on the button below
 
Add a business
 

Other Pages about Brackett Field Airport

Update a link
 
Copyright © AirNav, LLC. All rights reserved. Privacy Policy  Contact